sensor_id;sensor_type;location;lat;lon;timestamp;P1;durP1;ratioP1;P2;durP2;ratioP2
21386;SDS011;10854;45.922;6.716;2024-03-02T00:02:10;11.17;;;8.57;;
21386;SDS011;10854;45.922;6.716;2024-03-02T00:04:39;12.17;;;7.73;;
21386;SDS011;10854;45.922;6.716;2024-03-02T00:07:11;12.03;;;8.70;;
21386;SDS011;10854;45.922;6.716;2024-03-02T00:09:42;10.53;;;7.93;;
21386;SDS011;10854;45.922;6.716;2024-03-02T00:12:15;9.30;;;7.37;;
21386;SDS011;10854;45.922;6.716;2024-03-02T00:14:45;8.03;;;6.63;;
21386;SDS011;10854;45.922;6.716;2024-03-02T00:17:17;10.33;;;6.80;;
21386;SDS011;10854;45.922;6.716;2024-03-02T00:19:55;9.83;;;7.20;;
21386;SDS011;10854;45.922;6.716;2024-03-02T00:22:24;9.83;;;7.73;;
21386;SDS011;10854;45.922;6.716;2024-03-02T00:24:52;8.90;;;7.30;;
21386;SDS011;10854;45.922;6.716;2024-03-02T00:27:22;15.73;;;5.23;;
21386;SDS011;10854;45.922;6.716;2024-03-02T00:29:52;15.77;;;10.40;;
21386;SDS011;10854;45.922;6.716;2024-03-02T00:32:21;15.30;;;11.10;;
21386;SDS011;10854;45.922;6.716;2024-03-02T00:34:49;11.50;;;8.10;;
21386;SDS011;10854;45.922;6.716;2024-03-02T00:37:18;7.50;;;6.40;;
21386;SDS011;10854;45.922;6.716;2024-03-02T00:39:49;9.67;;;7.73;;
21386;SDS011;10854;45.922;6.716;2024-03-02T00:42:17;9.77;;;7.93;;
21386;SDS011;10854;45.922;6.716;2024-03-02T00:44:46;13.57;;;9.30;;
21386;SDS011;10854;45.922;6.716;2024-03-02T00:47:15;14.80;;;8.17;;
21386;SDS011;10854;45.922;6.716;2024-03-02T00:49:43;9.70;;;7.43;;
21386;SDS011;10854;45.922;6.716;2024-03-02T00:52:15;8.63;;;6.43;;
21386;SDS011;10854;45.922;6.716;2024-03-02T00:54:44;11.83;;;7.83;;
21386;SDS011;10854;45.922;6.716;2024-03-02T00:57:12;15.03;;;9.00;;
21386;SDS011;10854;45.922;6.716;2024-03-02T00:59:42;12.07;;;8.53;;
21386;SDS011;10854;45.922;6.716;2024-03-02T01:02:11;13.93;;;9.47;;
21386;SDS011;10854;45.922;6.716;2024-03-02T01:04:39;18.33;;;11.93;;
21386;SDS011;10854;45.922;6.716;2024-03-02T01:07:08;8.77;;;6.80;;
21386;SDS011;10854;45.922;6.716;2024-03-02T01:09:37;10.33;;;7.77;;
21386;SDS011;10854;45.922;6.716;2024-03-02T01:12:06;10.37;;;7.77;;
21386;SDS011;10854;45.922;6.716;2024-03-02T01:14:34;11.83;;;8.80;;
21386;SDS011;10854;45.922;6.716;2024-03-02T01:17:03;10.23;;;8.30;;
21386;SDS011;10854;45.922;6.716;2024-03-02T01:19:32;11.00;;;8.00;;
21386;SDS011;10854;45.922;6.716;2024-03-02T01:22:00;10.23;;;7.23;;
21386;SDS011;10854;45.922;6.716;2024-03-02T01:24:29;10.27;;;7.40;;
21386;SDS011;10854;45.922;6.716;2024-03-02T01:26:58;8.73;;;6.63;;
21386;SDS011;10854;45.922;6.716;2024-03-02T01:29:26;7.47;;;6.13;;
21386;SDS011;10854;45.922;6.716;2024-03-02T01:31:55;8.23;;;5.80;;
21386;SDS011;10854;45.922;6.716;2024-03-02T01:34:24;16.87;;;10.63;;
21386;SDS011;10854;45.922;6.716;2024-03-02T01:36:53;6.60;;;5.33;;
21386;SDS011;10854;45.922;6.716;2024-03-02T01:39:23;6.83;;;5.30;;
21386;SDS011;10854;45.922;6.716;2024-03-02T01:41:51;6.93;;;5.77;;
21386;SDS011;10854;45.922;6.716;2024-03-02T01:44:21;9.70;;;6.90;;
21386;SDS011;10854;45.922;6.716;2024-03-02T01:46:50;8.47;;;6.60;;
21386;SDS011;10854;45.922;6.716;2024-03-02T01:49:19;8.60;;;6.50;;
21386;SDS011;10854;45.922;6.716;2024-03-02T01:51:47;11.13;;;8.10;;
21386;SDS011;10854;45.922;6.716;2024-03-02T01:54:16;7.63;;;6.23;;
21386;SDS011;10854;45.922;6.716;2024-03-02T01:56:44;9.07;;;6.73;;
21386;SDS011;10854;45.922;6.716;2024-03-02T01:59:15;7.57;;;5.97;;
21386;SDS011;10854;45.922;6.716;2024-03-02T02:01:43;8.40;;;6.50;;
21386;SDS011;10854;45.922;6.716;2024-03-02T02:04:14;7.27;;;5.60;;
21386;SDS011;10854;45.922;6.716;2024-03-02T02:06:46;6.07;;;4.83;;
21386;SDS011;10854;45.922;6.716;2024-03-02T02:09:14;5.23;;;3.97;;
21386;SDS011;10854;45.922;6.716;2024-03-02T02:11:43;5.07;;;4.07;;
21386;SDS011;10854;45.922;6.716;2024-03-02T02:14:11;6.17;;;4.60;;
21386;SDS011;10854;45.922;6.716;2024-03-02T02:16:40;5.60;;;4.50;;
21386;SDS011;10854;45.922;6.716;2024-03-02T02:19:08;5.53;;;4.03;;
21386;SDS011;10854;45.922;6.716;2024-03-02T02:21:37;6.43;;;4.80;;
21386;SDS011;10854;45.922;6.716;2024-03-02T02:24:05;7.20;;;4.93;;
21386;SDS011;10854;45.922;6.716;2024-03-02T02:26:34;5.83;;;4.30;;
21386;SDS011;10854;45.922;6.716;2024-03-02T02:29:02;5.13;;;4.33;;
21386;SDS011;10854;45.922;6.716;2024-03-02T02:31:37;6.23;;;4.53;;
21386;SDS011;10854;45.922;6.716;2024-03-02T02:34:09;5.03;;;4.13;;
21386;SDS011;10854;45.922;6.716;2024-03-02T02:36:38;12.40;;;7.63;;
21386;SDS011;10854;45.922;6.716;2024-03-02T02:39:09;5.17;;;4.00;;
21386;SDS011;10854;45.922;6.716;2024-03-02T02:41:41;5.10;;;3.80;;
21386;SDS011;10854;45.922;6.716;2024-03-02T02:44:10;6.40;;;4.90;;
21386;SDS011;10854;45.922;6.716;2024-03-02T02:46:41;4.83;;;4.23;;
21386;SDS011;10854;45.922;6.716;2024-03-02T02:49:10;10.43;;;6.63;;
21386;SDS011;10854;45.922;6.716;2024-03-02T02:51:39;7.40;;;4.97;;
21386;SDS011;10854;45.922;6.716;2024-03-02T02:54:08;5.00;;;3.47;;
21386;SDS011;10854;45.922;6.716;2024-03-02T02:56:36;4.00;;;3.40;;
21386;SDS011;10854;45.922;6.716;2024-03-02T02:59:05;4.40;;;3.63;;
21386;SDS011;10854;45.922;6.716;2024-03-02T03:01:33;4.97;;;4.10;;
21386;SDS011;10854;45.922;6.716;2024-03-02T03:04:02;4.93;;;3.90;;
21386;SDS011;10854;45.922;6.716;2024-03-02T03:06:32;4.00;;;3.60;;
21386;SDS011;10854;45.922;6.716;2024-03-02T03:09:01;3.83;;;3.17;;
21386;SDS011;10854;45.922;6.716;2024-03-02T03:11:29;4.07;;;3.00;;
21386;SDS011;10854;45.922;6.716;2024-03-02T03:13:58;2.93;;;2.53;;
21386;SDS011;10854;45.922;6.716;2024-03-02T03:16:28;3.00;;;2.43;;
21386;SDS011;10854;45.922;6.716;2024-03-02T03:18:57;3.93;;;2.10;;
21386;SDS011;10854;45.922;6.716;2024-03-02T03:21:25;2.67;;;2.10;;
21386;SDS011;10854;45.922;6.716;2024-03-02T03:23:54;2.97;;;2.20;;
21386;SDS011;10854;45.922;6.716;2024-03-02T03:26:23;2.57;;;2.20;;
21386;SDS011;10854;45.922;6.716;2024-03-02T03:28:51;2.90;;;2.37;;
21386;SDS011;10854;45.922;6.716;2024-03-02T03:31:20;4.20;;;3.80;;
21386;SDS011;10854;45.922;6.716;2024-03-02T03:33:48;4.47;;;3.07;;
21386;SDS011;10854;45.922;6.716;2024-03-02T03:36:17;4.57;;;2.97;;
21386;SDS011;10854;45.922;6.716;2024-03-02T03:38:48;4.13;;;2.20;;
21386;SDS011;10854;45.922;6.716;2024-03-02T03:41:17;2.07;;;1.87;;
21386;SDS011;10854;45.922;6.716;2024-03-02T03:43:46;2.37;;;2.03;;
21386;SDS011;10854;45.922;6.716;2024-03-02T03:46:14;2.53;;;1.90;;
21386;SDS011;10854;45.922;6.716;2024-03-02T03:48:43;4.60;;;3.30;;
21386;SDS011;10854;45.922;6.716;2024-03-02T03:51:11;4.27;;;3.27;;
21386;SDS011;10854;45.922;6.716;2024-03-02T03:53:40;3.37;;;2.60;;
21386;SDS011;10854;45.922;6.716;2024-03-02T03:56:09;3.63;;;2.80;;
21386;SDS011;10854;45.922;6.716;2024-03-02T03:58:37;3.17;;;2.10;;
21386;SDS011;10854;45.922;6.716;2024-03-02T04:01:07;1.97;;;1.70;;
21386;SDS011;10854;45.922;6.716;2024-03-02T04:03:37;1.83;;;1.70;;
21386;SDS011;10854;45.922;6.716;2024-03-02T04:06:06;2.03;;;1.83;;
21386;SDS011;10854;45.922;6.716;2024-03-02T04:08:34;3.00;;;1.77;;
21386;SDS011;10854;45.922;6.716;2024-03-02T04:11:03;2.10;;;1.80;;
21386;SDS011;10854;45.922;6.716;2024-03-02T04:13:32;2.67;;;2.20;;
21386;SDS011;10854;45.922;6.716;2024-03-02T04:16:00;3.70;;;2.20;;
21386;SDS011;10854;45.922;6.716;2024-03-02T04:18:29;3.13;;;1.93;;
21386;SDS011;10854;45.922;6.716;2024-03-02T04:20:58;2.00;;;1.80;;
21386;SDS011;10854;45.922;6.716;2024-03-02T04:23:27;1.47;;;1.37;;
21386;SDS011;10854;45.922;6.716;2024-03-02T04:25:56;2.23;;;1.87;;
21386;SDS011;10854;45.922;6.716;2024-03-02T04:28:24;2.13;;;1.77;;
21386;SDS011;10854;45.922;6.716;2024-03-02T04:30:53;2.03;;;1.80;;
21386;SDS011;10854;45.922;6.716;2024-03-02T04:33:21;2.33;;;1.60;;
21386;SDS011;10854;45.922;6.716;2024-03-02T04:35:50;2.10;;;1.73;;
21386;SDS011;10854;45.922;6.716;2024-03-02T04:38:18;2.67;;;1.80;;
21386;SDS011;10854;45.922;6.716;2024-03-02T04:40:47;1.70;;;1.50;;
21386;SDS011;10854;45.922;6.716;2024-03-02T04:43:16;2.03;;;1.67;;
21386;SDS011;10854;45.922;6.716;2024-03-02T04:45:45;1.60;;;1.40;;
21386;SDS011;10854;45.922;6.716;2024-03-02T04:48:14;1.73;;;1.43;;
21386;SDS011;10854;45.922;6.716;2024-03-02T04:50:43;1.57;;;1.47;;
21386;SDS011;10854;45.922;6.716;2024-03-02T04:53:11;1.53;;;1.23;;
21386;SDS011;10854;45.922;6.716;2024-03-02T04:55:40;2.23;;;1.20;;
21386;SDS011;10854;45.922;6.716;2024-03-02T04:58:08;1.87;;;1.37;;
21386;SDS011;10854;45.922;6.716;2024-03-02T05:00:38;1.40;;;1.30;;
21386;SDS011;10854;45.922;6.716;2024-03-02T05:03:07;1.53;;;1.10;;
21386;SDS011;10854;45.922;6.716;2024-03-02T05:05:35;1.57;;;1.20;;
21386;SDS011;10854;45.922;6.716;2024-03-02T05:08:04;1.57;;;1.30;;
21386;SDS011;10854;45.922;6.716;2024-03-02T05:10:33;2.63;;;1.47;;
21386;SDS011;10854;45.922;6.716;2024-03-02T05:13:04;1.93;;;1.30;;
21386;SDS011;10854;45.922;6.716;2024-03-02T05:15:32;1.70;;;1.37;;
21386;SDS011;10854;45.922;6.716;2024-03-02T05:18:01;1.63;;;1.43;;
21386;SDS011;10854;45.922;6.716;2024-03-02T05:20:32;1.70;;;1.40;;
21386;SDS011;10854;45.922;6.716;2024-03-02T05:23:01;1.77;;;1.33;;
21386;SDS011;10854;45.922;6.716;2024-03-02T05:25:29;1.67;;;1.40;;
21386;SDS011;10854;45.922;6.716;2024-03-02T05:28:01;3.43;;;1.53;;
21386;SDS011;10854;45.922;6.716;2024-03-02T05:30:31;1.80;;;1.50;;
21386;SDS011;10854;45.922;6.716;2024-03-02T05:33:00;2.17;;;1.90;;
21386;SDS011;10854;45.922;6.716;2024-03-02T05:35:29;2.10;;;1.90;;
21386;SDS011;10854;45.922;6.716;2024-03-02T05:37:58;1.63;;;1.40;;
21386;SDS011;10854;45.922;6.716;2024-03-02T05:40:27;3.10;;;1.57;;
21386;SDS011;10854;45.922;6.716;2024-03-02T05:42:55;3.03;;;1.80;;
21386;SDS011;10854;45.922;6.716;2024-03-02T05:45:24;1.70;;;1.60;;
21386;SDS011;10854;45.922;6.716;2024-03-02T05:47:53;3.20;;;2.10;;
21386;SDS011;10854;45.922;6.716;2024-03-02T05:50:26;3.13;;;2.53;;
21386;SDS011;10854;45.922;6.716;2024-03-02T05:52:55;3.63;;;2.90;;
21386;SDS011;10854;45.922;6.716;2024-03-02T05:55:24;4.50;;;3.40;;
21386;SDS011;10854;45.922;6.716;2024-03-02T05:57:53;4.67;;;3.03;;
21386;SDS011;10854;45.922;6.716;2024-03-02T06:00:33;4.80;;;3.53;;
21386;SDS011;10854;45.922;6.716;2024-03-02T06:03:03;5.83;;;4.47;;
21386;SDS011;10854;45.922;6.716;2024-03-02T06:05:33;4.57;;;4.10;;
21386;SDS011;10854;45.922;6.716;2024-03-02T06:08:02;6.27;;;3.90;;
21386;SDS011;10854;45.922;6.716;2024-03-02T06:10:31;58.03;;;29.97;;
21386;SDS011;10854;45.922;6.716;2024-03-02T06:13:00;9.73;;;5.97;;
21386;SDS011;10854;45.922;6.716;2024-03-02T06:15:28;4.10;;;3.70;;
21386;SDS011;10854;45.922;6.716;2024-03-02T06:17:58;3.43;;;2.60;;
21386;SDS011;10854;45.922;6.716;2024-03-02T06:20:27;3.40;;;2.37;;
21386;SDS011;10854;45.922;6.716;2024-03-02T06:23:02;6.87;;;5.97;;
21386;SDS011;10854;45.922;6.716;2024-03-02T06:25:31;6.23;;;5.63;;
21386;SDS011;10854;45.922;6.716;2024-03-02T06:28:01;5.43;;;4.90;;
21386;SDS011;10854;45.922;6.716;2024-03-02T06:30:31;4.43;;;4.03;;
21386;SDS011;10854;45.922;6.716;2024-03-02T06:33:01;7.00;;;3.67;;
21386;SDS011;10854;45.922;6.716;2024-03-02T06:35:32;2.90;;;2.47;;
21386;SDS011;10854;45.922;6.716;2024-03-02T06:38:01;4.07;;;2.60;;
21386;SDS011;10854;45.922;6.716;2024-03-02T06:40:30;3.27;;;2.37;;
21386;SDS011;10854;45.922;6.716;2024-03-02T06:42:59;2.20;;;1.50;;
21386;SDS011;10854;45.922;6.716;2024-03-02T06:45:27;2.37;;;1.90;;
21386;SDS011;10854;45.922;6.716;2024-03-02T06:47:58;4.30;;;2.07;;
21386;SDS011;10854;45.922;6.716;2024-03-02T06:50:26;1.67;;;1.43;;
21386;SDS011;10854;45.922;6.716;2024-03-02T06:52:55;1.60;;;1.20;;
21386;SDS011;10854;45.922;6.716;2024-03-02T06:55:25;2.27;;;1.10;;
21386;SDS011;10854;45.922;6.716;2024-03-02T06:57:53;4.80;;;2.23;;
21386;SDS011;10854;45.922;6.716;2024-03-02T07:00:22;2.87;;;1.70;;
21386;SDS011;10854;45.922;6.716;2024-03-02T07:02:51;3.03;;;1.73;;
21386;SDS011;10854;45.922;6.716;2024-03-02T07:05:20;2.87;;;1.50;;
21386;SDS011;10854;45.922;6.716;2024-03-02T07:07:48;2.00;;;1.60;;
21386;SDS011;10854;45.922;6.716;2024-03-02T07:10:17;1.57;;;1.20;;
21386;SDS011;10854;45.922;6.716;2024-03-02T07:12:45;9.83;;;6.30;;
21386;SDS011;10854;45.922;6.716;2024-03-02T07:15:15;3.37;;;1.77;;
21386;SDS011;10854;45.922;6.716;2024-03-02T07:17:57;4.67;;;2.70;;
21386;SDS011;10854;45.922;6.716;2024-03-02T07:20:26;7.60;;;4.10;;
21386;SDS011;10854;45.922;6.716;2024-03-02T07:22:54;7.23;;;4.60;;
21386;SDS011;10854;45.922;6.716;2024-03-02T07:25:23;9.17;;;6.20;;
21386;SDS011;10854;45.922;6.716;2024-03-02T07:27:55;9.47;;;6.67;;
21386;SDS011;10854;45.922;6.716;2024-03-02T07:30:24;5.50;;;3.13;;
21386;SDS011;10854;45.922;6.716;2024-03-02T07:32:52;3.57;;;2.83;;
21386;SDS011;10854;45.922;6.716;2024-03-02T07:35:21;3.70;;;2.87;;
21386;SDS011;10854;45.922;6.716;2024-03-02T07:37:54;5.27;;;2.03;;
21386;SDS011;10854;45.922;6.716;2024-03-02T07:40:23;1.57;;;1.20;;
21386;SDS011;10854;45.922;6.716;2024-03-02T07:42:51;5.23;;;2.90;;
21386;SDS011;10854;45.922;6.716;2024-03-02T07:45:20;5.70;;;3.00;;
21386;SDS011;10854;45.922;6.716;2024-03-02T07:47:48;6.13;;;3.50;;
21386;SDS011;10854;45.922;6.716;2024-03-02T07:50:17;4.27;;;3.10;;
21386;SDS011;10854;45.922;6.716;2024-03-02T07:52:46;6.30;;;3.70;;
21386;SDS011;10854;45.922;6.716;2024-03-02T07:55:15;8.17;;;5.20;;
21386;SDS011;10854;45.922;6.716;2024-03-02T07:57:44;5.87;;;5.00;;
21386;SDS011;10854;45.922;6.716;2024-03-02T08:00:13;3.83;;;3.30;;
21386;SDS011;10854;45.922;6.716;2024-03-02T08:02:42;4.50;;;3.37;;
21386;SDS011;10854;45.922;6.716;2024-03-02T08:05:10;8.33;;;4.43;;
21386;SDS011;10854;45.922;6.716;2024-03-02T08:07:40;5.23;;;4.03;;
21386;SDS011;10854;45.922;6.716;2024-03-02T08:10:09;5.63;;;2.40;;
21386;SDS011;10854;45.922;6.716;2024-03-02T08:12:37;3.77;;;2.70;;
21386;SDS011;10854;45.922;6.716;2024-03-02T08:15:06;5.17;;;2.00;;
21386;SDS011;10854;45.922;6.716;2024-03-02T08:17:35;7.57;;;2.90;;
21386;SDS011;10854;45.922;6.716;2024-03-02T08:20:04;19.73;;;10.50;;
21386;SDS011;10854;45.922;6.716;2024-03-02T08:22:33;15.70;;;8.40;;
21386;SDS011;10854;45.922;6.716;2024-03-02T08:25:02;8.13;;;5.70;;
21386;SDS011;10854;45.922;6.716;2024-03-02T08:27:31;8.97;;;6.67;;
21386;SDS011;10854;45.922;6.716;2024-03-02T08:30:00;6.77;;;4.30;;
21386;SDS011;10854;45.922;6.716;2024-03-02T08:32:31;10.10;;;5.53;;
21386;SDS011;10854;45.922;6.716;2024-03-02T08:34:59;12.13;;;6.73;;
21386;SDS011;10854;45.922;6.716;2024-03-02T08:37:28;18.63;;;10.20;;
21386;SDS011;10854;45.922;6.716;2024-03-02T08:39:56;12.83;;;7.57;;
21386;SDS011;10854;45.922;6.716;2024-03-02T08:42:25;12.00;;;7.70;;
21386;SDS011;10854;45.922;6.716;2024-03-02T08:44:53;8.57;;;3.67;;
21386;SDS011;10854;45.922;6.716;2024-03-02T08:47:22;4.93;;;4.07;;
21386;SDS011;10854;45.922;6.716;2024-03-02T08:49:50;6.53;;;5.20;;
21386;SDS011;10854;45.922;6.716;2024-03-02T08:52:19;7.07;;;5.70;;
21386;SDS011;10854;45.922;6.716;2024-03-02T08:54:48;9.53;;;8.50;;
21386;SDS011;10854;45.922;6.716;2024-03-02T08:57:16;8.33;;;6.53;;
21386;SDS011;10854;45.922;6.716;2024-03-02T08:59:46;14.17;;;9.90;;
21386;SDS011;10854;45.922;6.716;2024-03-02T09:02:15;11.53;;;9.00;;
21386;SDS011;10854;45.922;6.716;2024-03-02T09:04:43;6.07;;;4.30;;
21386;SDS011;10854;45.922;6.716;2024-03-02T09:07:13;7.13;;;5.40;;
21386;SDS011;10854;45.922;6.716;2024-03-02T09:09:41;6.57;;;4.93;;
21386;SDS011;10854;45.922;6.716;2024-03-02T09:12:10;4.97;;;3.47;;
21386;SDS011;10854;45.922;6.716;2024-03-02T09:14:39;7.27;;;3.10;;
21386;SDS011;10854;45.922;6.716;2024-03-02T09:17:09;4.23;;;2.60;;
21386;SDS011;10854;45.922;6.716;2024-03-02T09:19:39;3.23;;;2.23;;
21386;SDS011;10854;45.922;6.716;2024-03-02T09:22:07;2.30;;;2.10;;
21386;SDS011;10854;45.922;6.716;2024-03-02T09:24:37;3.93;;;2.47;;
21386;SDS011;10854;45.922;6.716;2024-03-02T09:27:05;8.77;;;4.07;;
21386;SDS011;10854;45.922;6.716;2024-03-02T09:29:34;6.17;;;3.10;;
21386;SDS011;10854;45.922;6.716;2024-03-02T09:32:02;5.00;;;2.53;;
21386;SDS011;10854;45.922;6.716;2024-03-02T09:34:32;5.33;;;2.50;;
21386;SDS011;10854;45.922;6.716;2024-03-02T09:37:01;2.57;;;1.80;;
21386;SDS011;10854;45.922;6.716;2024-03-02T09:39:32;2.30;;;1.83;;
21386;SDS011;10854;45.922;6.716;2024-03-02T09:42:01;4.03;;;2.03;;
21386;SDS011;10854;45.922;6.716;2024-03-02T09:44:33;3.27;;;1.70;;
21386;SDS011;10854;45.922;6.716;2024-03-02T09:47:01;3.53;;;3.17;;
21386;SDS011;10854;45.922;6.716;2024-03-02T09:49:30;3.57;;;2.43;;
21386;SDS011;10854;45.922;6.716;2024-03-02T09:51:58;2.27;;;2.00;;
21386;SDS011;10854;45.922;6.716;2024-03-02T09:54:27;2.30;;;1.80;;
21386;SDS011;10854;45.922;6.716;2024-03-02T09:56:56;1.73;;;1.50;;
21386;SDS011;10854;45.922;6.716;2024-03-02T09:59:25;1.93;;;1.33;;
21386;SDS011;10854;45.922;6.716;2024-03-02T10:02:00;46.23;;;20.87;;
21386;SDS011;10854;45.922;6.716;2024-03-02T10:04:30;2.00;;;1.37;;
21386;SDS011;10854;45.922;6.716;2024-03-02T10:07:11;1.20;;;1.10;;
21386;SDS011;10854;45.922;6.716;2024-03-02T10:09:43;2.93;;;1.80;;
21386;SDS011;10854;45.922;6.716;2024-03-02T10:12:15;3.23;;;1.50;;
21386;SDS011;10854;45.922;6.716;2024-03-02T10:14:45;1.77;;;1.30;;
21386;SDS011;10854;45.922;6.716;2024-03-02T10:17:17;1.33;;;1.20;;
21386;SDS011;10854;45.922;6.716;2024-03-02T10:19:47;3.90;;;1.73;;
21386;SDS011;10854;45.922;6.716;2024-03-02T10:22:15;3.93;;;1.40;;
21386;SDS011;10854;45.922;6.716;2024-03-02T10:24:44;2.17;;;1.40;;
21386;SDS011;10854;45.922;6.716;2024-03-02T10:27:25;1.63;;;1.40;;
21386;SDS011;10854;45.922;6.716;2024-03-02T10:29:56;4.07;;;1.50;;
21386;SDS011;10854;45.922;6.716;2024-03-02T10:32:25;2.73;;;1.40;;
21386;SDS011;10854;45.922;6.716;2024-03-02T10:34:54;2.57;;;1.20;;
21386;SDS011;10854;45.922;6.716;2024-03-02T10:37:25;1.63;;;1.10;;
21386;SDS011;10854;45.922;6.716;2024-03-02T10:39:56;1.40;;;1.20;;
21386;SDS011;10854;45.922;6.716;2024-03-02T10:42:27;3.80;;;1.63;;
21386;SDS011;10854;45.922;6.716;2024-03-02T10:44:58;2.00;;;1.30;;
21386;SDS011;10854;45.922;6.716;2024-03-02T10:47:27;7.27;;;1.50;;
21386;SDS011;10854;45.922;6.716;2024-03-02T10:50:00;2.57;;;1.80;;
21386;SDS011;10854;45.922;6.716;2024-03-02T10:52:31;2.67;;;1.13;;
21386;SDS011;10854;45.922;6.716;2024-03-02T10:54:59;0.90;;;0.90;;
21386;SDS011;10854;45.922;6.716;2024-03-02T10:57:28;2.80;;;0.80;;
21386;SDS011;10854;45.922;6.716;2024-03-02T11:00:11;0.93;;;0.80;;
21386;SDS011;10854;45.922;6.716;2024-03-02T11:02:46;1.30;;;0.87;;
21386;SDS011;10854;45.922;6.716;2024-03-02T11:05:23;0.73;;;0.70;;
21386;SDS011;10854;45.922;6.716;2024-03-02T11:08:02;1.07;;;0.97;;
21386;SDS011;10854;45.922;6.716;2024-03-02T11:10:40;0.80;;;0.80;;
21386;SDS011;10854;45.922;6.716;2024-03-02T11:13:17;0.83;;;0.73;;
21386;SDS011;10854;45.922;6.716;2024-03-02T11:15:52;1.03;;;0.77;;
21386;SDS011;10854;45.922;6.716;2024-03-02T11:18:26;1.10;;;0.90;;
21386;SDS011;10854;45.922;6.716;2024-03-02T11:20:56;1.00;;;0.80;;
21386;SDS011;10854;45.922;6.716;2024-03-02T11:23:33;1.30;;;0.80;;
21386;SDS011;10854;45.922;6.716;2024-03-02T11:26:18;0.70;;;0.70;;
21386;SDS011;10854;45.922;6.716;2024-03-02T11:28:49;0.77;;;0.70;;
21386;SDS011;10854;45.922;6.716;2024-03-02T11:31:19;0.77;;;0.73;;
21386;SDS011;10854;45.922;6.716;2024-03-02T11:33:49;2.20;;;0.93;;
21386;SDS011;10854;45.922;6.716;2024-03-02T11:36:18;1.23;;;0.70;;
21386;SDS011;10854;45.922;6.716;2024-03-02T11:38:48;1.17;;;0.80;;
21386;SDS011;10854;45.922;6.716;2024-03-02T11:41:24;0.87;;;0.87;;
21386;SDS011;10854;45.922;6.716;2024-03-02T11:43:53;2.30;;;1.10;;
21386;SDS011;10854;45.922;6.716;2024-03-02T11:46:22;1.50;;;1.40;;
21386;SDS011;10854;45.922;6.716;2024-03-02T11:48:51;2.63;;;1.93;;
21386;SDS011;10854;45.922;6.716;2024-03-02T11:51:21;5.53;;;2.00;;
21386;SDS011;10854;45.922;6.716;2024-03-02T11:53:50;2.67;;;1.93;;
21386;SDS011;10854;45.922;6.716;2024-03-02T11:56:22;1.93;;;1.73;;
21386;SDS011;10854;45.922;6.716;2024-03-02T11:58:53;2.37;;;1.97;;
21386;SDS011;10854;45.922;6.716;2024-03-02T12:01:22;1.53;;;0.90;;
21386;SDS011;10854;45.922;6.716;2024-03-02T12:03:51;1.80;;;1.40;;
21386;SDS011;10854;45.922;6.716;2024-03-02T12:06:22;4.10;;;2.70;;
21386;SDS011;10854;45.922;6.716;2024-03-02T12:08:53;2.20;;;2.00;;
21386;SDS011;10854;45.922;6.716;2024-03-02T12:11:22;1.93;;;1.10;;
21386;SDS011;10854;45.922;6.716;2024-03-02T12:13:53;0.73;;;0.70;;
21386;SDS011;10854;45.922;6.716;2024-03-02T12:16:23;0.60;;;0.60;;
21386;SDS011;10854;45.922;6.716;2024-03-02T12:18:52;1.53;;;0.80;;
21386;SDS011;10854;45.922;6.716;2024-03-02T12:21:21;0.70;;;0.70;;
21386;SDS011;10854;45.922;6.716;2024-03-02T12:23:49;1.83;;;0.70;;
21386;SDS011;10854;45.922;6.716;2024-03-02T12:26:18;0.70;;;0.57;;
21386;SDS011;10854;45.922;6.716;2024-03-02T12:28:47;1.80;;;0.50;;
21386;SDS011;10854;45.922;6.716;2024-03-02T12:31:16;1.30;;;0.60;;
21386;SDS011;10854;45.922;6.716;2024-03-02T12:33:44;0.40;;;0.40;;
21386;SDS011;10854;45.922;6.716;2024-03-02T12:36:14;1.30;;;0.60;;
21386;SDS011;10854;45.922;6.716;2024-03-02T12:38:46;2.10;;;0.90;;
21386;SDS011;10854;45.922;6.716;2024-03-02T12:41:15;0.97;;;0.80;;
21386;SDS011;10854;45.922;6.716;2024-03-02T12:43:44;0.80;;;0.80;;
21386;SDS011;10854;45.922;6.716;2024-03-02T12:46:12;1.23;;;0.87;;
21386;SDS011;10854;45.922;6.716;2024-03-02T12:48:42;1.40;;;0.85;;
21386;SDS011;10854;45.922;6.716;2024-03-02T12:51:10;0.73;;;0.63;;
21386;SDS011;10854;45.922;6.716;2024-03-02T12:53:39;1.27;;;0.80;;
21386;SDS011;10854;45.922;6.716;2024-03-02T12:56:08;1.20;;;1.10;;
21386;SDS011;10854;45.922;6.716;2024-03-02T12:58:40;1.27;;;1.10;;
21386;SDS011;10854;45.922;6.716;2024-03-02T13:01:11;1.23;;;0.90;;
21386;SDS011;10854;45.922;6.716;2024-03-02T13:03:43;1.10;;;1.00;;
21386;SDS011;10854;45.922;6.716;2024-03-02T13:06:13;1.10;;;0.98;;
21386;SDS011;10854;45.922;6.716;2024-03-02T13:08:43;0.88;;;0.88;;
21386;SDS011;10854;45.922;6.716;2024-03-02T13:11:16;2.05;;;0.90;;
21386;SDS011;10854;45.922;6.716;2024-03-02T13:13:45;1.10;;;0.82;;
21386;SDS011;10854;45.922;6.716;2024-03-02T13:16:14;0.90;;;0.80;;
21386;SDS011;10854;45.922;6.716;2024-03-02T13:18:44;1.00;;;0.85;;
21386;SDS011;10854;45.922;6.716;2024-03-02T13:21:12;1.00;;;0.90;;
21386;SDS011;10854;45.922;6.716;2024-03-02T13:23:42;1.88;;;0.80;;
21386;SDS011;10854;45.922;6.716;2024-03-02T13:26:10;1.10;;;0.90;;
21386;SDS011;10854;45.922;6.716;2024-03-02T13:28:40;0.82;;;0.80;;
21386;SDS011;10854;45.922;6.716;2024-03-02T13:31:08;1.75;;;1.02;;
21386;SDS011;10854;45.922;6.716;2024-03-02T13:33:37;1.83;;;1.02;;
21386;SDS011;10854;45.922;6.716;2024-03-02T13:36:06;1.70;;;0.95;;
21386;SDS011;10854;45.922;6.716;2024-03-02T13:38:36;1.83;;;1.00;;
21386;SDS011;10854;45.922;6.716;2024-03-02T13:41:05;0.82;;;0.80;;
21386;SDS011;10854;45.922;6.716;2024-03-02T13:43:33;0.85;;;0.70;;
21386;SDS011;10854;45.922;6.716;2024-03-02T13:46:02;1.42;;;0.90;;
21386;SDS011;10854;45.922;6.716;2024-03-02T13:48:32;0.80;;;0.80;;
21386;SDS011;10854;45.922;6.716;2024-03-02T13:51:02;1.48;;;0.95;;
21386;SDS011;10854;45.922;6.716;2024-03-02T13:53:31;1.00;;;0.90;;
21386;SDS011;10854;45.922;6.716;2024-03-02T13:56:00;0.82;;;0.73;;
21386;SDS011;10854;45.922;6.716;2024-03-02T13:58:28;1.13;;;0.77;;
21386;SDS011;10854;45.922;6.716;2024-03-02T14:00:57;1.48;;;0.63;;
21386;SDS011;10854;45.922;6.716;2024-03-02T14:03:26;3.40;;;2.40;;
21386;SDS011;10854;45.922;6.716;2024-03-02T14:05:57;1.70;;;0.63;;
21386;SDS011;10854;45.922;6.716;2024-03-02T14:08:26;2.22;;;0.77;;
21386;SDS011;10854;45.922;6.716;2024-03-02T14:10:55;3.22;;;0.75;;
21386;SDS011;10854;45.922;6.716;2024-03-02T14:13:25;1.02;;;0.93;;
21386;SDS011;10854;45.922;6.716;2024-03-02T14:15:54;1.83;;;1.08;;
21386;SDS011;10854;45.922;6.716;2024-03-02T14:18:23;0.80;;;0.70;;
21386;SDS011;10854;45.922;6.716;2024-03-02T14:20:52;0.82;;;0.80;;
21386;SDS011;10854;45.922;6.716;2024-03-02T14:23:20;2.35;;;2.15;;
21386;SDS011;10854;45.922;6.716;2024-03-02T14:25:50;1.58;;;0.82;;
21386;SDS011;10854;45.922;6.716;2024-03-02T14:28:19;3.38;;;3.10;;
21386;SDS011;10854;45.922;6.716;2024-03-02T14:30:51;1.38;;;1.10;;
21386;SDS011;10854;45.922;6.716;2024-03-02T14:33:21;1.15;;;1.00;;
21386;SDS011;10854;45.922;6.716;2024-03-02T14:35:51;1.58;;;0.93;;
21386;SDS011;10854;45.922;6.716;2024-03-02T14:38:20;5.10;;;1.15;;
21386;SDS011;10854;45.922;6.716;2024-03-02T14:40:49;2.55;;;1.10;;
21386;SDS011;10854;45.922;6.716;2024-03-02T14:43:19;1.87;;;1.10;;
21386;SDS011;10854;45.922;6.716;2024-03-02T14:45:47;4.32;;;1.98;;
21386;SDS011;10854;45.922;6.716;2024-03-02T14:48:16;2.07;;;1.27;;
21386;SDS011;10854;45.922;6.716;2024-03-02T14:50:45;2.87;;;2.07;;
21386;SDS011;10854;45.922;6.716;2024-03-02T14:53:14;8.70;;;4.63;;
21386;SDS011;10854;45.922;6.716;2024-03-02T14:55:42;3.80;;;2.70;;
21386;SDS011;10854;45.922;6.716;2024-03-02T14:58:11;4.90;;;2.27;;
21386;SDS011;10854;45.922;6.716;2024-03-02T15:00:39;4.10;;;1.50;;